createdAt,value
2018-07-15T00:01:23.018Z,100489
2018-07-15T00:03:51.891Z,100491
2018-07-15T00:06:20.731Z,100490
2018-07-15T00:08:49.572Z,100484
2018-07-15T00:11:18.422Z,100478
2018-07-15T00:13:47.993Z,100483
2018-07-15T00:16:16.841Z,100475
2018-07-15T00:18:46.422Z,100470
2018-07-15T00:21:15.994Z,100470
2018-07-15T00:23:44.835Z,100470
2018-07-15T00:26:14.431Z,100466
2018-07-15T00:28:43.279Z,100469
2018-07-15T00:31:12.122Z,100468
2018-07-15T00:33:41.703Z,100470
2018-07-15T00:36:10.534Z,100474
2018-07-15T00:38:39.386Z,100470
2018-07-15T00:41:08.218Z,100466
2018-07-15T00:43:37.057Z,100469
2018-07-15T00:46:05.903Z,100470
2018-07-15T00:48:34.742Z,100468
2018-07-15T00:51:03.574Z,100461
2018-07-15T00:53:32.414Z,100465
2018-07-15T00:56:01.276Z,100472
2018-07-15T00:58:30.136Z,100459
2018-07-15T01:00:59.709Z,100457
2018-07-15T01:03:28.548Z,100470
2018-07-15T01:05:57.380Z,100468
2018-07-15T01:08:26.215Z,100469
2018-07-15T01:10:55.076Z,100470
2018-07-15T01:13:23.909Z,100472
2018-07-15T01:15:52.749Z,100476
2018-07-15T01:18:21.617Z,100466
2018-07-15T01:20:50.466Z,100474
2018-07-15T01:23:19.298Z,100472
2018-07-15T01:25:48.141Z,100463
2018-07-15T01:28:16.989Z,100469
2018-07-15T01:30:45.828Z,100469
2018-07-15T01:33:14.668Z,100473
2018-07-15T01:35:43.514Z,100474
2018-07-15T01:38:12.354Z,100466
2018-07-15T01:40:41.943Z,100466
2018-07-15T01:43:10.779Z,100457
2018-07-15T01:45:39.612Z,100462
2018-07-15T01:48:08.463Z,100462
2018-07-15T01:50:37.309Z,100462
2018-07-15T01:53:06.155Z,100464
2018-07-15T01:55:34.994Z,100460
2018-07-15T01:58:03.845Z,100454
2018-07-15T02:00:32.692Z,100453
2018-07-15T02:03:02.273Z,100454
2018-07-15T02:05:31.133Z,100456
2018-07-15T02:07:59.975Z,100455
2018-07-15T02:10:29.557Z,100453
2018-07-15T02:12:58.402Z,100454
2018-07-15T02:15:27.252Z,100459
2018-07-15T02:17:56.831Z,100452
2018-07-15T02:20:25.661Z,100461
2018-07-15T02:22:54.499Z,100453
2018-07-15T02:25:23.338Z,100454
2018-07-15T02:27:52.176Z,100455
2018-07-15T02:30:21.014Z,100458
2018-07-15T02:32:49.856Z,100454
2018-07-15T02:35:18.688Z,100449
2018-07-15T02:37:48.268Z,100451
2018-07-15T02:40:17.126Z,100451
2018-07-15T02:42:45.961Z,100449
2018-07-15T02:45:14.810Z,100447
2018-07-15T02:47:43.641Z,100448
2018-07-15T02:50:13.228Z,100447
2018-07-15T02:52:42.815Z,100442
2018-07-15T02:55:11.661Z,100446
2018-07-15T02:57:40.508Z,100443
2018-07-15T03:00:09.358Z,100446
2018-07-15T03:02:38.203Z,100447
2018-07-15T03:05:07.049Z,100440
2018-07-15T03:07:35.883Z,100446
2018-07-15T03:10:04.722Z,100446
2018-07-15T03:12:33.562Z,100448
2018-07-15T03:15:02.422Z,100445
2018-07-15T03:17:31.346Z,100452
2018-07-15T03:20:00.089Z,100439
2018-07-15T03:22:28.955Z,100448
2018-07-15T03:24:57.787Z,100443
2018-07-15T03:27:27.216Z,100445
2018-07-15T03:29:56.799Z,100437
2018-07-15T03:32:25.626Z,100439
2018-07-15T03:34:54.468Z,100439
2018-07-15T03:37:23.306Z,100434
2018-07-15T03:39:52.166Z,100428
2018-07-15T03:42:20.973Z,100436
2018-07-15T03:44:50.550Z,100438
2018-07-15T03:47:19.389Z,100437
2018-07-15T03:49:48.241Z,100443
2018-07-15T03:52:17.075Z,100437
2018-07-15T03:54:45.918Z,100428
2018-07-15T03:57:14.754Z,100442
2018-07-15T03:59:43.593Z,100434
2018-07-15T04:02:12.447Z,100426
2018-07-15T04:04:41.280Z,100421
2018-07-15T04:07:10.131Z,100430
2018-07-15T04:09:38.962Z,100429
2018-07-15T04:12:07.818Z,100433
2018-07-15T04:14:36.654Z,100428
2018-07-15T04:17:05.510Z,100421
2018-07-15T04:19:34.349Z,100429
2018-07-15T04:22:03.201Z,100425
2018-07-15T04:24:32.031Z,100427
2018-07-15T04:27:00.869Z,100426
2018-07-15T04:29:29.739Z,100419
2018-07-15T04:31:58.571Z,100428
2018-07-15T04:34:27.416Z,100422
2018-07-15T04:36:56.258Z,100426
2018-07-15T04:39:25.120Z,100424
2018-07-15T04:41:53.941Z,100423
2018-07-15T04:44:22.781Z,100422
2018-07-15T04:46:51.617Z,100425
2018-07-15T04:49:20.467Z,100426
2018-07-15T04:51:49.300Z,100429
2018-07-15T04:54:18.156Z,100433
2018-07-15T04:56:47.003Z,100430
2018-07-15T04:59:15.849Z,100438
2018-07-15T05:01:45.442Z,100436
2018-07-15T05:04:14.297Z,100432
2018-07-15T05:06:43.139Z,100433
2018-07-15T05:09:11.984Z,100437
2018-07-15T05:11:40.824Z,100447
2018-07-15T05:14:10.397Z,100439
2018-07-15T05:16:39.241Z,100449
2018-07-15T05:19:08.089Z,100452
2018-07-15T05:21:36.930Z,100452
2018-07-15T05:24:05.773Z,100456
2018-07-15T05:26:35.369Z,100457
2018-07-15T05:29:04.226Z,100457
2018-07-15T05:31:33.070Z,100462
2018-07-15T05:34:01.936Z,100463
2018-07-15T05:36:30.738Z,100464
2018-07-15T05:39:00.339Z,100458
2018-07-15T05:41:29.923Z,100457
2018-07-15T05:43:58.761Z,100466
2018-07-15T05:46:27.619Z,100469
2018-07-15T05:48:56.461Z,100465
2018-07-15T05:51:25.311Z,100465
2018-07-15T05:53:54.159Z,100459
2018-07-15T05:56:23.018Z,100471
2018-07-15T05:58:51.866Z,100479
2018-07-15T06:01:20.709Z,100476
2018-07-15T06:03:49.599Z,100486
2018-07-15T06:06:19.145Z,100476
2018-07-15T06:08:47.988Z,100485
2018-07-15T06:11:16.831Z,100486
2018-07-15T06:13:46.419Z,100492
2018-07-15T06:16:15.270Z,100489
2018-07-15T06:18:44.108Z,100492
2018-07-15T06:21:12.956Z,100490
2018-07-15T06:23:41.802Z,100486
2018-07-15T06:26:11.385Z,100479
2018-07-15T06:28:40.228Z,100488
2018-07-15T06:31:09.077Z,100490
2018-07-15T06:33:37.923Z,100488
2018-07-15T06:36:06.765Z,100496
2018-07-15T06:38:36.348Z,100484
2018-07-15T06:41:05.192Z,100476
2018-07-15T06:43:34.039Z,100474
2018-07-15T06:46:03.465Z,100488
2018-07-15T06:48:33.051Z,100484
2018-07-15T06:51:01.901Z,100476
2018-07-15T06:53:30.737Z,100475
2018-07-15T06:56:00.355Z,100482
2018-07-15T06:58:29.195Z,100486
2018-07-15T07:00:58.032Z,100485
2018-07-15T07:03:27.629Z,100499
2018-07-15T07:05:56.481Z,100491
2018-07-15T07:08:25.320Z,100496
2018-07-15T07:10:54.920Z,100496
2018-07-15T07:13:23.770Z,100498
2018-07-15T07:15:52.621Z,100488
2018-07-15T07:18:21.466Z,100492
2018-07-15T07:20:50.335Z,100483
2018-07-15T07:23:19.184Z,100495
2018-07-15T07:25:48.032Z,100497
2018-07-15T07:28:16.883Z,100494
2018-07-15T07:30:45.732Z,100490
2018-07-15T07:33:14.586Z,100491
2018-07-15T07:35:43.436Z,100488
2018-07-15T07:38:12.287Z,100480
2018-07-15T07:40:41.132Z,100482
2018-07-15T07:43:09.986Z,100488
2018-07-15T07:45:39.616Z,100494
2018-07-15T07:48:08.465Z,100482
2018-07-15T07:50:37.321Z,100493
2018-07-15T07:53:06.178Z,100484
2018-07-15T07:55:35.024Z,100484
2018-07-15T07:58:03.863Z,100478
2018-07-15T08:00:32.713Z,100476
2018-07-15T08:03:01.571Z,100476
2018-07-15T08:05:30.413Z,100476
2018-07-15T08:07:59.291Z,100477
2018-07-15T08:10:28.889Z,100474
2018-07-15T08:12:57.745Z,100468
2018-07-15T08:15:26.581Z,100468
2018-07-15T08:17:56.171Z,100467
2018-07-15T08:20:25.007Z,100464
2018-07-15T08:22:54.145Z,100468
2018-07-15T08:25:22.985Z,100467
2018-07-15T08:27:51.832Z,100456
2018-07-15T08:30:38.423Z,100457
2018-07-15T08:33:07.262Z,100467
2018-07-15T08:35:36.105Z,100469
2018-07-15T08:38:04.958Z,100476
2018-07-15T08:40:33.835Z,100474
2018-07-15T08:43:02.630Z,100470
2018-07-15T08:45:31.477Z,100470
2018-07-15T08:48:01.063Z,100466
2018-07-15T08:50:29.939Z,100479
2018-07-15T08:52:58.739Z,100476
2018-07-15T08:55:27.584Z,100472
2018-07-15T08:57:57.164Z,100471
2018-07-15T09:00:26.035Z,100481
2018-07-15T09:02:54.866Z,100477
2018-07-15T09:05:23.723Z,100476
2018-07-15T09:07:52.544Z,100471
2018-07-15T09:10:21.400Z,100470
2018-07-15T09:12:50.250Z,100479
2018-07-15T09:15:19.095Z,100465
2018-07-15T09:17:47.967Z,100468
2018-07-15T09:20:16.802Z,100467
2018-07-15T09:22:45.645Z,100463
2018-07-15T09:25:14.482Z,100473
2018-07-15T09:27:43.326Z,100459
2018-07-15T09:30:12.163Z,100462
2018-07-15T09:32:41.025Z,100462
2018-07-15T09:35:09.940Z,100463
2018-07-15T09:37:38.726Z,100458
2018-07-15T09:40:07.591Z,100461
2018-07-15T09:42:36.442Z,100457
2018-07-15T09:45:05.294Z,100460
2018-07-15T09:47:34.139Z,100451
2018-07-15T09:50:02.979Z,100453
2018-07-15T09:52:31.832Z,100451
2018-07-15T09:55:00.669Z,100450
2018-07-15T09:57:29.526Z,100443
2018-07-15T09:59:58.380Z,100441
2018-07-15T10:02:27.215Z,100438
2018-07-15T10:04:56.072Z,100432
2018-07-15T10:07:24.918Z,100425
2018-07-15T10:09:53.749Z,100431
2018-07-15T10:12:22.596Z,100438
2018-07-15T10:14:51.442Z,100439
2018-07-15T10:17:20.278Z,100421
2018-07-15T10:19:49.127Z,100422
2018-07-15T10:22:18.021Z,100419
2018-07-15T10:24:46.831Z,100412
2018-07-15T10:27:16.425Z,100406
2018-07-15T10:29:45.278Z,100403
2018-07-15T10:32:14.125Z,100401
2018-07-15T10:34:42.976Z,100403
2018-07-15T10:37:11.830Z,100393
2018-07-15T10:39:40.664Z,100393
2018-07-15T10:42:09.552Z,100382
2018-07-15T10:44:38.431Z,100382
2018-07-15T10:47:07.224Z,100379
2018-07-15T10:49:36.075Z,100378
2018-07-15T10:52:04.917Z,100367
2018-07-15T10:54:34.501Z,100367
2018-07-15T10:57:03.374Z,100362
2018-07-15T10:59:32.218Z,100359
2018-07-15T11:02:01.054Z,100360
2018-07-15T11:04:29.885Z,100352
2018-07-15T11:06:58.775Z,100349
2018-07-15T11:09:27.586Z,100346
2018-07-15T11:11:56.423Z,100343
2018-07-15T11:14:25.331Z,100335
2018-07-15T11:16:55.139Z,100331
2018-07-15T11:19:23.984Z,100332
2018-07-15T11:21:52.824Z,100325
2018-07-15T11:24:21.663Z,100325
2018-07-15T11:26:50.533Z,100324
2018-07-15T11:29:19.369Z,100326
2018-07-15T11:31:48.224Z,100332
2018-07-15T11:34:17.077Z,100322
2018-07-15T11:36:45.920Z,100325
2018-07-15T11:39:14.757Z,100330
2018-07-15T11:41:43.609Z,100326
2018-07-15T11:44:12.442Z,100323
2018-07-15T11:46:41.292Z,100324
2018-07-15T11:49:10.119Z,100318
2018-07-15T11:51:39.705Z,100307
2018-07-15T11:54:08.543Z,100299
2018-07-15T11:56:37.388Z,100300
2018-07-15T11:59:06.315Z,100299
2018-07-15T12:01:35.206Z,100295
2018-07-15T12:04:03.995Z,100287
2018-07-15T12:06:32.840Z,100280
2018-07-15T12:09:01.696Z,100291
2018-07-15T12:11:30.540Z,100278
2018-07-15T12:13:59.392Z,100273
2018-07-15T12:16:28.243Z,100260
2018-07-15T12:18:57.080Z,100260
2018-07-15T12:21:26.661Z,100263
2018-07-15T12:23:55.506Z,100253
2018-07-15T12:26:25.082Z,100256
2018-07-15T12:28:53.925Z,100251
2018-07-15T12:31:22.769Z,100252
2018-07-15T12:33:51.617Z,100247
2018-07-15T12:36:20.671Z,100243
2018-07-15T12:38:50.255Z,100247
2018-07-15T12:41:19.094Z,100240
2018-07-15T12:43:47.940Z,100245
2018-07-15T12:46:16.787Z,100232
2018-07-15T12:48:45.638Z,100230
2018-07-15T12:51:14.476Z,100226
2018-07-15T12:53:43.319Z,100219
2018-07-15T12:56:12.156Z,100227
2018-07-15T12:58:40.989Z,100226
2018-07-15T13:01:10.584Z,100227
2018-07-15T13:03:39.422Z,100228
2018-07-15T13:06:08.261Z,100225
2018-07-15T13:08:37.128Z,100225
2018-07-15T13:11:05.935Z,100223
2018-07-15T13:13:34.773Z,100218
2018-07-15T13:16:03.631Z,100227
2018-07-15T13:18:32.463Z,100226
2018-07-15T13:21:01.306Z,100226
2018-07-15T13:23:30.140Z,100235
2018-07-15T13:25:58.988Z,100235
2018-07-15T13:28:27.818Z,100231
2018-07-15T13:30:56.664Z,100230
2018-07-15T13:33:26.239Z,100228
2018-07-15T13:35:55.099Z,100227
2018-07-15T13:38:23.933Z,100228
2018-07-15T13:40:52.779Z,100223
2018-07-15T13:43:21.620Z,100217
2018-07-15T13:45:50.458Z,100217
2018-07-15T13:48:19.293Z,100218
2018-07-15T13:50:48.131Z,100226
2018-07-15T13:53:16.987Z,100231
2018-07-15T13:55:45.841Z,100233
2018-07-15T13:58:14.705Z,100239
2018-07-15T14:00:43.549Z,100250
2018-07-15T14:03:12.384Z,100248
2018-07-15T14:05:41.229Z,100241
2018-07-15T14:08:10.067Z,100239
2018-07-15T14:10:38.963Z,100237
2018-07-15T14:13:07.733Z,100241
2018-07-15T14:15:36.594Z,100246
2018-07-15T14:18:05.427Z,100254
2018-07-15T14:20:34.274Z,100249
2018-07-15T14:23:03.118Z,100250
2018-07-15T14:25:31.955Z,100247
2018-07-15T14:28:00.808Z,100256
2018-07-15T14:30:29.628Z,100249
2018-07-15T14:32:58.487Z,100244
2018-07-15T14:35:27.318Z,100259
2018-07-15T14:37:56.204Z,100256
2018-07-15T14:40:24.999Z,100255
2018-07-15T14:42:53.840Z,100251
2018-07-15T14:45:22.730Z,100243
2018-07-15T14:47:51.538Z,100245
2018-07-15T14:50:20.367Z,100239
2018-07-15T14:52:49.214Z,100234
2018-07-15T14:55:18.067Z,100235
2018-07-15T14:57:46.920Z,100221
2018-07-15T15:00:15.769Z,100233
2018-07-15T15:02:44.616Z,100227
2018-07-15T15:05:13.454Z,100230
2018-07-15T15:07:42.316Z,100236
2018-07-15T15:10:11.169Z,100243
2018-07-15T15:12:40.008Z,100249
2018-07-15T15:15:08.849Z,100254
2018-07-15T15:17:37.682Z,100256
2018-07-15T15:20:06.518Z,100263
2018-07-15T15:22:35.401Z,100261
2018-07-15T15:25:05.001Z,100277
2018-07-15T15:27:33.831Z,100271
2018-07-15T15:30:02.797Z,100285
2018-07-15T15:32:31.540Z,100293
2018-07-15T15:35:00.379Z,100300
2018-07-15T15:37:29.236Z,100302
2018-07-15T15:39:58.139Z,100313
2018-07-15T15:42:27.790Z,100305
2018-07-15T15:44:56.619Z,100311
2018-07-15T15:47:25.394Z,100317
2018-07-15T15:49:54.239Z,100335
2018-07-15T15:52:23.076Z,100342
2018-07-15T15:54:51.916Z,100362
2018-07-15T15:57:20.757Z,100353
2018-07-15T15:59:49.593Z,100350
2018-07-15T16:02:18.490Z,100348
2018-07-15T16:04:47.421Z,100341
2018-07-15T16:07:16.270Z,100326
2018-07-15T16:09:45.120Z,100320
2018-07-15T16:12:13.955Z,100307
2018-07-15T16:14:42.796Z,100311
2018-07-15T16:17:11.687Z,100313
2018-07-15T16:19:40.542Z,100313
2018-07-15T16:22:09.370Z,100307
2018-07-15T16:24:38.207Z,100309
2018-07-15T16:27:07.044Z,100326
2018-07-15T16:29:35.879Z,100340
2018-07-15T16:32:04.735Z,100350
2018-07-15T16:34:33.568Z,100379
2018-07-15T16:37:02.413Z,100392
2018-07-15T16:39:31.284Z,100402
2018-07-15T16:42:00.092Z,100415
2018-07-15T16:44:28.944Z,100412
2018-07-15T16:46:57.795Z,100420
2018-07-15T16:49:27.399Z,100421
2018-07-15T16:51:56.242Z,100425
2018-07-15T16:54:25.073Z,100427
2018-07-15T16:56:53.928Z,100421
2018-07-15T16:59:22.776Z,100418
2018-07-15T17:01:51.621Z,100413
2018-07-15T17:04:20.466Z,100406
2018-07-15T17:06:49.327Z,100409
2018-07-15T17:09:18.155Z,100390
2018-07-15T17:11:46.983Z,100402
2018-07-15T17:14:15.900Z,100399
2018-07-15T17:16:44.666Z,100394
2018-07-15T17:19:14.271Z,100391
2018-07-15T17:21:43.145Z,100386
2018-07-15T17:24:11.984Z,100393
2018-07-15T17:26:40.832Z,100387
2018-07-15T17:29:09.679Z,100388
2018-07-15T17:31:38.527Z,100385
2018-07-15T17:34:07.379Z,100388
2018-07-15T17:36:36.223Z,100384
2018-07-15T17:39:05.077Z,100385
2018-07-15T17:41:33.919Z,100392
2018-07-15T17:44:02.761Z,100385
2018-07-15T17:46:31.615Z,100386
2018-07-15T17:49:00.454Z,100387
2018-07-15T17:51:29.301Z,100393
2018-07-15T17:53:58.143Z,100400
2018-07-15T17:56:27.761Z,100391
2018-07-15T17:58:56.669Z,100394
2018-07-15T18:01:25.450Z,100398
2018-07-15T18:03:54.302Z,100387
2018-07-15T18:06:23.149Z,100387
2018-07-15T18:08:51.990Z,100392
2018-07-15T18:11:20.836Z,100387
2018-07-15T18:13:49.700Z,100380
2018-07-15T18:16:18.546Z,100380
2018-07-15T18:18:47.409Z,100375
2018-07-15T18:21:16.213Z,100368
2018-07-15T18:23:45.078Z,100372
2018-07-15T18:26:13.910Z,100369
2018-07-15T18:28:42.758Z,100375
2018-07-15T18:31:11.608Z,100366
2018-07-15T18:33:40.471Z,100357
2018-07-15T18:36:09.316Z,100354
2018-07-15T18:38:38.165Z,100353
2018-07-15T18:41:07.011Z,100348
2018-07-15T18:43:35.883Z,100335
2018-07-15T18:46:04.731Z,100324
2018-07-15T18:48:33.590Z,100313
2018-07-15T18:51:02.444Z,100306
2018-07-15T18:53:31.371Z,100302
2018-07-15T18:56:00.203Z,100298
2018-07-15T18:58:29.749Z,100299
2018-07-15T19:00:58.600Z,100290
2018-07-15T19:03:27.440Z,100290
2018-07-15T19:05:56.327Z,100292
2018-07-15T19:08:25.123Z,100280
2018-07-15T19:10:53.965Z,100274
2018-07-15T19:13:22.823Z,100275
2018-07-15T19:15:52.402Z,100281
2018-07-15T19:18:21.309Z,100280
2018-07-15T19:20:50.102Z,100275
2018-07-15T19:23:19.687Z,100270
2018-07-15T19:25:48.588Z,100275
2018-07-15T19:28:17.423Z,100272
2018-07-15T19:30:46.283Z,100268
2018-07-15T19:33:15.879Z,100266
2018-07-15T19:35:45.471Z,100267
2018-07-15T19:38:14.368Z,100265
2018-07-15T19:40:43.183Z,100257
2018-07-15T19:43:12.763Z,100254
2018-07-15T19:45:41.622Z,100254
2018-07-15T19:48:10.473Z,100264
2018-07-15T19:50:39.345Z,100251
2018-07-15T19:53:08.227Z,100243
2018-07-15T19:55:37.036Z,100246
2018-07-15T19:58:06.616Z,100256
2018-07-15T20:00:35.491Z,100261
2018-07-15T20:03:04.336Z,100260
2018-07-15T20:05:33.184Z,100269
2018-07-15T20:08:02.022Z,100282
2018-07-15T20:10:30.863Z,100283
2018-07-15T20:12:59.745Z,100275
2018-07-15T20:15:28.576Z,100269
2018-07-15T20:17:57.427Z,100269
2018-07-15T20:20:26.270Z,100271
2018-07-15T20:22:55.234Z,100265
2018-07-15T20:25:23.989Z,100271
2018-07-15T20:27:52.958Z,100276
2018-07-15T20:30:21.823Z,100271
2018-07-15T20:32:50.673Z,100272
2018-07-15T20:35:19.539Z,100279
2018-07-15T20:37:48.378Z,100283
2018-07-15T20:40:17.965Z,100297
2018-07-15T20:42:46.813Z,100295
2018-07-15T20:45:15.684Z,100303
2018-07-15T20:47:44.527Z,100298
2018-07-15T20:50:13.376Z,100290
2018-07-15T20:52:42.221Z,100292
2018-07-15T20:55:11.101Z,100297
2018-07-15T20:57:39.912Z,100301
2018-07-15T21:00:08.759Z,100313
2018-07-15T21:02:37.628Z,100342
2018-07-15T21:05:06.494Z,100335
2018-07-15T21:07:35.290Z,100322
2018-07-15T21:10:04.123Z,100320
2018-07-15T21:12:32.962Z,100321
2018-07-15T21:15:01.859Z,100326
2018-07-15T21:17:30.706Z,100320
2018-07-15T21:19:59.542Z,100315
2018-07-15T21:22:28.390Z,100323
2018-07-15T21:24:57.244Z,100326
2018-07-15T21:27:26.082Z,100338
2018-07-15T21:29:55.659Z,100337
2018-07-15T21:32:24.512Z,100332
2018-07-15T21:34:53.358Z,100338
2018-07-15T21:37:22.201Z,100335
2018-07-15T21:39:51.056Z,100335
2018-07-15T21:42:19.881Z,100331
2018-07-15T21:44:48.726Z,100335
2018-07-15T21:47:17.617Z,100347
2018-07-15T21:49:46.475Z,100349
2018-07-15T21:52:15.305Z,100349
2018-07-15T21:54:44.182Z,100337
2018-07-15T21:57:13.776Z,100338
2018-07-15T21:59:42.610Z,100344
2018-07-15T22:02:11.458Z,100346
2018-07-15T22:04:41.046Z,100337
2018-07-15T22:10:04.100Z,100347
2018-07-15T22:12:32.943Z,100349
2018-07-15T22:15:02.530Z,100357
2018-07-15T22:17:31.384Z,100348
2018-07-15T22:20:00.218Z,100347
2018-07-15T22:22:29.805Z,100349
2018-07-15T22:24:58.664Z,100350
2018-07-15T22:27:27.513Z,100352
2018-07-15T22:29:56.349Z,100358
2018-07-15T22:32:25.196Z,100350
2018-07-15T22:34:54.042Z,100359
2018-07-15T22:37:22.894Z,100363
2018-07-15T22:39:51.737Z,100363
2018-07-15T22:42:20.569Z,100364
2018-07-15T22:44:49.432Z,100358
2018-07-15T22:47:18.277Z,100359
2018-07-15T22:49:47.123Z,100363
2018-07-15T22:52:15.985Z,100362
2018-07-15T22:54:44.874Z,100362
2018-07-15T22:57:13.686Z,100362
2018-07-15T22:59:42.543Z,100353
2018-07-15T23:02:11.382Z,100357
2018-07-15T23:04:40.977Z,100355
2018-07-15T23:07:10.561Z,100369
2018-07-15T23:09:40.138Z,100361
2018-07-15T23:12:09.067Z,100366
2018-07-15T23:14:38.657Z,100369
2018-07-15T23:17:07.497Z,100366
2018-07-15T23:19:36.346Z,100366
2018-07-15T23:22:05.185Z,100370
2018-07-15T23:24:34.026Z,100367
2018-07-15T23:27:02.884Z,100374
2018-07-15T23:29:31.724Z,100377
2018-07-15T23:32:00.566Z,100377
2018-07-15T23:34:29.398Z,100381
2018-07-15T23:36:58.242Z,100382
2018-07-15T23:39:27.082Z,100384
2018-07-15T23:41:55.945Z,100379
2018-07-15T23:44:25.529Z,100378
2018-07-15T23:46:54.388Z,100383
2018-07-15T23:49:23.229Z,100377
2018-07-15T23:51:52.083Z,100377
2018-07-15T23:54:20.912Z,100383
2018-07-15T23:56:50.489Z,100375
2018-07-15T23:59:19.332Z,100374
